Time;durP1;ratioP1;P1;durP2;ratioP2;P2;SDS_P1;SDS_P2;PMS_P1;PMS_P2;Temp;Humidity;BMP_temperature;BMP_pressure;BME280_temperature;BME280_humidity;BME280_pressure;Samples;Min_cycle;Max_cycle;Signal;HPM_P1;HPM_P2
2021/04/26 00:00:25;;;;;;;2.13;1.63;;;;;;;5.79;44.15;96627.28;5078143;28;20356;-75
2021/04/26 00:03:02;;;;;;;2.28;1.60;;;;;;;5.74;43.47;96614.84;5089714;28;20359;-75
2021/04/26 00:05:39;;;;;;;2.30;1.70;;;;;;;5.68;43.73;96623.38;5120584;27;20131;-75
2021/04/26 00:08:17;;;;;;;2.50;1.90;;;;;;;5.64;43.69;96614.31;5110948;27;20412;-75
2021/04/26 00:10:53;;;;;;;3.17;2.00;;;;;;;5.76;44.64;96607.66;5088983;27;20391;-77
2021/04/26 00:13:30;;;;;;;2.93;1.87;;;;;;;5.81;45.51;96600.09;5089015;28;20419;-75
2021/04/26 00:16:06;;;;;;;2.80;2.10;;;;;;;5.82;46.02;96603.53;5085629;27;786353;-75
2021/04/26 00:18:44;;;;;;;2.55;1.77;;;;;;;5.65;45.84;96600.34;5105676;27;20404;-75
2021/04/26 00:21:20;;;;;;;2.17;1.95;;;;;;;5.54;46.04;96600.78;5099814;28;20797;-75
2021/04/26 00:23:58;;;;;;;2.83;1.80;;;;;;;5.40;46.30;96594.63;5090451;27;20356;-75
2021/04/26 00:26:35;;;;;;;6.07;2.13;;;;;;;5.33;46.43;96596.31;5127008;27;20200;-75
2021/04/26 00:29:14;;;;;;;2.72;1.83;;;;;;;5.26;46.56;96591.84;5084678;27;20458;-76
2021/04/26 00:31:51;;;;;;;3.35;1.33;;;;;;;5.19;46.93;96582.38;5090509;27;20362;-77
2021/04/26 00:34:29;;;;;;;2.45;1.83;;;;;;;5.14;46.96;96576.88;5090146;27;20359;-75
2021/04/26 00:37:07;;;;;;;2.13;1.70;;;;;;;5.08;46.72;96578.41;5110318;27;20178;-75
2021/04/26 00:39:43;;;;;;;4.40;1.55;;;;;;;5.03;47.06;96578.16;5102196;27;20407;-75
2021/04/26 00:42:21;;;;;;;1.88;1.67;;;;;;;5.00;47.11;96575.91;5090479;27;20359;-75
2021/04/26 00:44:58;;;;;;;2.65;1.60;;;;;;;4.96;47.32;96579.84;5110466;27;20174;-76
2021/04/26 00:47:37;;;;;;;1.90;1.58;;;;;;;4.94;47.30;96582.63;5089852;28;20364;-75
2021/04/26 00:50:20;;;;;;;1.90;1.80;;;;;;;4.91;47.67;96577.78;5079953;27;20367;-75
2021/04/26 00:52:59;;;;;;;2.90;1.83;;;;;;;4.90;47.54;96570.19;5090256;27;20352;-76
2021/04/26 00:55:38;;;;;;;5.05;2.60;;;;;;;4.88;47.59;96565.16;5090062;28;20356;-77
2021/04/26 00:58:15;;;;;;;2.22;1.75;;;;;;;4.85;47.68;96568.91;5090477;27;20359;-75
2021/04/26 01:00:54;;;;;;;2.03;1.70;;;;;;;4.80;47.73;96565.22;5090087;28;20360;-75
2021/04/26 01:03:32;;;;;;;4.63;1.70;;;;;;;4.78;47.85;96562.00;5110497;27;20170;-75
2021/04/26 01:06:09;;;;;;;2.88;1.52;;;;;;;4.78;47.76;96570.59;5089967;28;20849;-75
2021/04/26 01:08:47;;;;;;;2.75;1.70;;;;;;;4.80;48.07;96567.84;5110991;27;20120;-75
2021/04/26 01:11:38;;;;;;;2.42;2.08;;;;;;;4.82;49.24;96578.84;5090446;28;20704;-75
2021/04/26 01:14:28;;;;;;;2.88;1.77;;;;;;;4.83;48.81;96583.06;5089908;28;20856;-75
2021/04/26 01:17:15;;;;;;;2.42;1.55;;;;;;;4.88;48.35;96583.34;5090022;28;20707;-75
2021/04/26 01:20:11;;;;;;;1.60;1.50;;;;;;;4.93;49.09;96588.81;5098261;27;781214;-75
2021/04/26 01:23:13;;;;;;;2.85;1.60;;;;;;;4.97;48.37;96576.25;5101710;28;20293;-75
2021/04/26 01:25:42;;;;;;;2.70;1.70;;;;;;;4.93;48.44;96581.00;5059384;28;20055;-75
2021/04/26 01:28:33;;;;;;;3.47;1.88;;;;;;;4.96;49.06;96591.06;5101815;28;20043;-75
2021/04/26 01:31:11;;;;;;;2.85;1.45;;;;;;;5.01;48.92;96586.13;5099344;28;20035;-75
2021/04/26 01:33:46;;;;;;;4.10;2.08;;;;;;;5.04;48.87;96583.19;5109193;28;20412;-75
2021/04/26 01:36:16;;;;;;;2.00;1.80;;;;;;;5.07;48.50;96584.59;5102037;28;20044;-75
2021/04/26 01:38:45;;;;;;;2.05;1.55;;;;;;;5.06;48.54;96582.97;5090681;28;20395;-76
2021/04/26 01:41:13;;;;;;;2.17;1.90;;;;;;;5.04;48.55;96587.53;5109733;28;20036;-75
2021/04/26 01:43:41;;;;;;;2.53;1.52;;;;;;;4.99;48.28;96580.28;5109676;28;20039;-75
2021/04/26 01:46:10;;;;;;;3.28;1.80;;;;;;;4.94;48.61;96574.84;5101782;28;20039;-75
2021/04/26 01:48:43;;;;;;;3.25;1.83;;;;;;;4.89;49.15;96569.34;5080914;28;20495;-75
2021/04/26 01:51:11;;;;;;;3.15;1.90;;;;;;;4.84;48.46;96564.69;5091201;28;20043;-76
2021/04/26 01:53:43;;;;;;;2.05;1.83;;;;;;;4.80;49.21;96581.63;5084009;28;20040;-76
2021/04/26 01:56:11;;;;;;;2.55;1.80;;;;;;;4.75;48.82;96570.16;5090971;28;20388;-75
2021/04/26 01:58:40;;;;;;;2.85;1.80;;;;;;;4.68;48.84;96577.84;5100843;28;20032;-75
2021/04/26 02:01:08;;;;;;;3.50;1.58;;;;;;;4.61;48.87;96563.97;5097521;28;20502;-76
2021/04/26 02:03:35;;;;;;;3.17;1.50;;;;;;;4.54;49.01;96560.47;5099250;28;20043;-76
2021/04/26 02:06:02;;;;;;;2.30;1.92;;;;;;;4.43;49.16;96559.91;5097429;28;20048;-76
2021/04/26 02:08:29;;;;;;;2.40;1.77;;;;;;;4.36;49.27;96566.78;5092545;28;20059;-75
2021/04/26 02:10:56;;;;;;;2.53;2.05;;;;;;;4.26;49.48;96556.66;5096037;28;20040;-78
2021/04/26 02:13:24;;;;;;;2.45;1.70;;;;;;;4.17;49.74;96560.28;5091814;28;20040;-75
2021/04/26 02:15:55;;;;;;;5.20;2.35;;;;;;;4.11;50.87;96566.16;5090842;28;20032;-75
2021/04/26 02:18:22;;;;;;;1.70;1.58;;;;;;;4.04;50.00;96558.28;5102200;28;20171;-75
2021/04/26 02:20:48;;;;;;;1.80;1.70;;;;;;;3.97;50.08;96559.97;5101979;28;20048;-76
2021/04/26 02:23:15;;;;;;;3.20;2.00;;;;;;;3.92;50.22;96566.63;5104893;28;20036;-76
2021/04/26 02:25:41;;;;;;;2.08;1.90;;;;;;;3.90;50.64;96564.19;5108584;28;20044;-75
2021/04/26 02:28:07;;;;;;;3.53;1.80;;;;;;;3.89;50.73;96557.41;5098479;28;20055;-75
2021/04/26 02:30:33;;;;;;;2.60;1.90;;;;;;;3.88;50.60;96548.00;5090943;28;20043;-75
2021/04/26 02:33:24;;;;;;;2.83;1.60;;;;;;;3.81;53.22;96558.28;5094714;28;20059;-76
2021/04/26 02:36:03;;;;;;;2.92;1.80;;;;;;;3.73;51.42;96532.38;5089653;28;20043;-75
2021/04/26 02:38:34;;;;;;;5.13;2.30;;;;;;;3.67;51.59;96533.06;5094280;28;20039;-75
2021/04/26 02:41:13;;;;;;;2.20;1.88;;;;;;;3.63;51.85;96534.38;5092382;28;20487;-76
2021/04/26 02:43:45;;;;;;;4.47;2.30;;;;;;;3.64;52.76;96538.59;5092472;28;20043;-75
2021/04/26 02:46:13;;;;;;;3.92;2.13;;;;;;;3.60;51.60;96522.56;5093277;28;20372;-75
2021/04/26 02:48:42;;;;;;;2.33;1.80;;;;;;;3.63;52.58;96539.56;5080377;28;20040;-75
2021/04/26 02:51:09;;;;;;;1.88;1.77;;;;;;;3.63;51.99;96545.59;5087802;28;20036;-76
2021/04/26 02:53:36;;;;;;;3.97;2.00;;;;;;;3.62;51.93;96536.19;5061862;28;20071;-75
2021/04/26 02:56:16;;;;;;;2.30;1.92;;;;;;;3.57;53.46;96537.66;5094137;28;20050;-76
2021/04/26 02:58:46;;;;;;;3.10;2.10;;;;;;;3.53;52.69;96531.19;5094443;28;20480;-75
2021/04/26 03:01:13;;;;;;;2.72;2.22;;;;;;;3.50;52.55;96532.34;5089973;28;20036;-75
2021/04/26 03:03:43;;;;;;;2.13;1.80;;;;;;;3.47;52.96;96530.13;5088370;28;20366;-75
2021/04/26 03:06:10;;;;;;;3.47;2.28;;;;;;;3.44;52.83;96526.09;5094179;28;20048;-75
2021/04/26 03:08:38;;;;;;;2.17;1.98;;;;;;;3.39;52.87;96524.97;5094494;28;20044;-75
2021/04/26 03:11:07;;;;;;;2.67;2.17;;;;;;;3.36;53.25;96515.75;5091490;28;20044;-75
2021/04/26 03:13:34;;;;;;;5.20;2.10;;;;;;;3.36;53.37;96512.34;5088245;28;20044;-75
2021/04/26 03:16:00;;;;;;;3.58;2.40;;;;;;;3.33;53.38;96508.31;5083596;28;20031;-75
2021/04/26 03:18:27;;;;;;;3.47;2.25;;;;;;;3.31;53.42;96497.31;5089968;28;20047;-75
2021/04/26 03:20:57;;;;;;;2.83;2.30;;;;;;;3.29;53.98;96493.28;5085270;28;20040;-75
2021/04/26 03:23:26;;;;;;;1.92;1.73;;;;;;;3.30;53.90;96505.25;5087056;28;20043;-75
2021/04/26 03:25:57;;;;;;;3.65;2.17;;;;;;;3.28;54.49;96502.84;5093078;28;20032;-76
2021/04/26 03:28:24;;;;;;;3.55;2.22;;;;;;;3.28;53.90;96502.03;5076331;28;20099;-76
2021/04/26 03:30:51;;;;;;;5.32;2.10;;;;;;;3.24;54.01;96504.16;5094078;28;20040;-75
2021/04/26 03:33:18;;;;;;;2.22;2.03;;;;;;;3.23;53.99;96511.13;5093839;28;20036;-75
2021/04/26 03:35:44;;;;;;;4.00;2.20;;;;;;;3.20;54.06;96495.91;5069181;28;20048;-76
2021/04/26 03:38:11;;;;;;;2.95;2.25;;;;;;;3.17;54.29;96496.25;5085420;28;20033;-75
2021/04/26 03:40:38;;;;;;;2.72;2.25;;;;;;;3.12;54.35;96498.53;5088069;28;20039;-75
2021/04/26 03:43:05;;;;;;;2.90;2.60;;;;;;;3.07;54.56;96487.91;5092133;28;20056;-76
2021/04/26 03:45:31;;;;;;;3.05;2.60;;;;;;;3.03;54.67;96482.22;5084917;28;20036;-75
2021/04/26 03:47:58;;;;;;;3.28;2.40;;;;;;;3.04;54.77;96483.03;5080044;28;20491;-76
2021/04/26 03:50:25;;;;;;;4.28;2.17;;;;;;;3.00;54.97;96485.19;5088296;28;20396;-75
2021/04/26 03:52:52;;;;;;;2.72;2.40;;;;;;;2.95;54.82;96479.69;5092847;28;20036;-75
2021/04/26 03:55:22;;;;;;;3.70;2.22;;;;;;;2.95;55.58;96489.25;5093628;28;20036;-75
2021/04/26 03:57:48;;;;;;;3.13;2.60;;;;;;;2.94;55.31;96485.03;5091224;28;20063;-76
2021/04/26 04:00:17;;;;;;;2.50;2.22;;;;;;;2.93;55.31;96479.03;5093168;28;20413;-75
2021/04/26 04:02:43;;;;;;;2.60;2.38;;;;;;;2.88;55.42;96476.16;5072284;28;20044;-75
2021/04/26 04:05:10;;;;;;;3.75;2.25;;;;;;;2.88;55.62;96475.34;5088381;28;20472;-74
2021/04/26 04:07:37;;;;;;;4.38;2.85;;;;;;;2.83;55.82;96465.47;5081710;28;20048;-75
2021/04/26 04:10:06;;;;;;;3.10;2.05;;;;;;;2.79;55.86;96462.44;5089777;28;20032;-75
2021/04/26 04:12:33;;;;;;;3.83;2.60;;;;;;;2.79;55.95;96462.44;5089060;28;20035;-75
2021/04/26 04:15:00;;;;;;;2.95;2.50;;;;;;;2.77;55.94;96450.63;5092678;28;20040;-75
2021/04/26 04:17:26;;;;;;;3.42;2.35;;;;;;;2.70;56.09;96450.47;5056778;28;20107;-75
2021/04/26 04:19:53;;;;;;;3.22;2.47;;;;;;;2.67;56.26;96445.66;5082763;28;21292;-76
2021/04/26 04:22:19;;;;;;;6.03;3.25;;;;;;;2.66;56.15;96456.16;5084980;28;20044;-76
2021/04/26 04:24:46;;;;;;;3.92;2.53;;;;;;;2.69;56.44;96453.22;5088077;28;20036;-76
2021/04/26 04:27:12;;;;;;;5.05;2.83;;;;;;;2.72;56.72;96460.69;5084940;28;20036;-76
2021/04/26 04:29:38;;;;;;;5.65;3.03;;;;;;;2.75;56.67;96453.41;5089204;28;20039;-76
2021/04/26 04:32:06;;;;;;;4.40;2.83;;;;;;;2.76;56.83;96460.16;5092208;28;20055;-76
2021/04/26 04:34:32;;;;;;;2.60;2.40;;;;;;;2.75;56.86;96460.34;5085440;28;20063;-76
2021/04/26 04:36:59;;;;;;;3.53;3.05;;;;;;;2.74;56.98;96469.88;5089776;28;20040;-76
2021/04/26 04:39:25;;;;;;;2.90;2.58;;;;;;;2.72;56.86;96471.03;5081990;28;20028;-76
2021/04/26 04:41:52;;;;;;;3.30;2.88;;;;;;;2.72;56.92;96474.44;5086619;28;20044;-76
2021/04/26 04:44:18;;;;;;;4.88;2.95;;;;;;;2.71;57.06;96480.59;5090731;28;20361;-76
2021/04/26 04:46:44;;;;;;;2.75;2.47;;;;;;;2.70;56.97;96476.38;5084951;28;20032;-76
2021/04/26 04:49:11;;;;;;;3.40;2.63;;;;;;;2.68;57.34;96488.69;5083378;28;20404;-76
2021/04/26 04:51:38;;;;;;;4.43;2.53;;;;;;;2.80;57.54;96486.56;5083444;28;20043;-76
2021/04/26 04:54:04;;;;;;;4.63;3.03;;;;;;;3.15;57.98;96482.66;5084831;28;20469;-76
2021/04/26 04:56:30;;;;;;;2.75;2.45;;;;;;;3.67;57.80;96486.38;5087342;28;20048;-76
2021/04/26 04:58:56;;;;;;;3.30;3.00;;;;;;;4.20;57.53;96484.66;5081130;28;20040;-76
2021/04/26 05:01:23;;;;;;;4.43;2.72;;;;;;;4.73;57.12;96481.22;5088223;28;20039;-76
2021/04/26 05:03:49;;;;;;;4.65;2.80;;;;;;;5.25;56.56;96475.03;5084605;28;20379;-76
2021/04/26 05:06:15;;;;;;;3.00;2.65;;;;;;;5.69;56.09;96472.28;5065001;28;20044;-76
2021/04/26 05:08:41;;;;;;;4.68;2.78;;;;;;;6.10;55.40;96470.84;5085472;28;20052;-75
2021/04/26 05:11:07;;;;;;;4.00;2.75;;;;;;;6.48;54.81;96468.69;5079916;28;20036;-75
2021/04/26 05:13:33;;;;;;;5.00;3.00;;;;;;;6.86;54.23;96462.28;5081812;28;20041;-75
2021/04/26 05:15:59;;;;;;;3.00;2.60;;;;;;;7.17;53.68;96453.19;5083901;28;20037;-76
2021/04/26 05:18:26;;;;;;;3.42;2.40;;;;;;;7.46;52.96;96452.06;5081688;28;20507;-76
2021/04/26 05:20:52;;;;;;;4.43;2.97;;;;;;;7.77;52.46;96441.06;5077899;28;20498;-76
2021/04/26 05:23:18;;;;;;;5.43;2.90;;;;;;;8.00;51.75;96434.63;5079542;28;20036;-76
2021/04/26 05:25:44;;;;;;;2.78;2.50;;;;;;;8.25;51.27;96434.81;5082634;28;20039;-76
2021/04/26 05:28:10;;;;;;;6.53;2.90;;;;;;;8.32;50.35;96422.56;5083869;28;20047;-77
2021/04/26 05:30:36;;;;;;;5.05;2.65;;;;;;;8.28;50.03;96426.59;5081920;28;20037;-76
2021/04/26 05:33:03;;;;;;;5.50;3.13;;;;;;;8.36;49.79;96423.75;5085007;28;20483;-77
2021/04/26 05:35:29;;;;;;;4.97;2.70;;;;;;;8.28;49.21;96418.75;5078832;28;20036;-76
2021/04/26 05:37:55;;;;;;;6.82;2.83;;;;;;;8.24;48.94;96426.19;5081453;28;20052;-76
2021/04/26 05:40:21;;;;;;;6.75;3.17;;;;;;;8.42;48.95;96427.38;5082341;28;20043;-76
2021/04/26 05:42:47;;;;;;;3.60;2.90;;;;;;;8.74;48.60;96420.47;5081831;28;20037;-77
2021/04/26 05:45:18;;;;;;;6.20;3.40;;;;;;;9.17;48.47;96406.00;5083554;28;20033;-76
2021/04/26 05:47:44;;;;;;;3.35;2.63;;;;;;;9.62;47.67;96403.31;5084049;28;20043;-76
2021/04/26 05:50:11;;;;;;;5.00;2.88;;;;;;;9.94;47.01;96396.19;5080790;28;20051;-76
2021/04/26 05:52:37;;;;;;;5.88;2.95;;;;;;;10.26;46.12;96388.25;5083155;28;20043;-76
2021/04/26 05:55:03;;;;;;;5.53;3.20;;;;;;;10.52;45.48;96400.28;5080252;28;20047;-76
2021/04/26 05:57:29;;;;;;;6.15;2.90;;;;;;;10.72;44.80;96406.13;5086976;28;20054;-76
2021/04/26 05:59:57;;;;;;;6.57;3.13;;;;;;;10.88;44.29;96402.13;5081602;28;20465;-76
2021/04/26 06:02:23;;;;;;;11.07;4.40;;;;;;;11.06;43.67;96422.28;5076574;28;20040;-76
2021/04/26 06:04:49;;;;;;;9.00;3.17;;;;;;;11.18;43.14;96424.97;5083281;28;20500;-76
2021/04/26 06:07:15;;;;;;;4.53;2.90;;;;;;;11.30;42.39;96422.38;5090156;28;20484;-77
2021/04/26 06:09:41;;;;;;;4.72;3.00;;;;;;;11.45;42.05;96432.50;5067213;28;20048;-76
2021/04/26 06:12:07;;;;;;;3.95;2.67;;;;;;;11.55;41.84;96433.53;5091545;28;20032;-76
2021/04/26 06:14:33;;;;;;;5.97;3.05;;;;;;;11.67;41.22;96440.66;5081709;28;20035;-76
2021/04/26 06:17:00;;;;;;;6.40;3.00;;;;;;;11.74;40.77;96444.00;5084107;28;20051;-76
2021/04/26 06:19:27;;;;;;;6.07;2.90;;;;;;;11.85;40.32;96429.28;5086207;28;20052;-76
2021/04/26 06:21:53;;;;;;;3.42;2.40;;;;;;;11.95;39.91;96432.19;5085601;28;20051;-76
2021/04/26 06:24:19;;;;;;;2.60;2.40;;;;;;;12.22;39.67;96431.72;5084174;28;20039;-76
2021/04/26 06:26:46;;;;;;;3.92;2.72;;;;;;;12.57;39.01;96429.09;5079874;28;20036;-76
2021/04/26 06:29:12;;;;;;;4.43;2.67;;;;;;;12.86;38.61;96429.16;5086841;28;20476;-76
2021/04/26 06:31:38;;;;;;;4.50;2.78;;;;;;;13.24;37.97;96430.44;5090024;28;20480;-76
2021/04/26 06:34:04;;;;;;;3.22;2.78;;;;;;;13.48;37.30;96431.16;5087472;28;20047;-76
2021/04/26 06:36:30;;;;;;;4.90;2.60;;;;;;;13.62;36.60;96432.44;5085882;28;20032;-76
2021/04/26 06:38:56;;;;;;;6.90;2.67;;;;;;;13.67;36.30;96434.38;5079784;28;20036;-76
2021/04/26 06:41:23;;;;;;;4.47;2.50;;;;;;;13.90;36.08;96423.72;5085662;28;20037;-76
2021/04/26 06:43:49;;;;;;;3.63;2.75;;;;;;;14.08;35.47;96432.41;5089352;28;20043;-76
2021/04/26 06:46:15;;;;;;;4.00;2.47;;;;;;;14.00;34.94;96430.97;5080333;28;20102;-76
2021/04/26 06:48:41;;;;;;;3.47;2.35;;;;;;;13.89;34.89;96437.91;5083501;28;20469;-76
2021/04/26 06:51:07;;;;;;;8.10;2.50;;;;;;;13.79;34.63;96435.91;5090262;28;20045;-76
2021/04/26 06:53:33;;;;;;;3.72;2.80;;;;;;;13.71;34.60;96435.50;5088734;28;20051;-76
2021/04/26 06:55:59;;;;;;;2.83;2.40;;;;;;;13.67;34.56;96440.47;5065856;28;20059;-76
2021/04/26 06:58:26;;;;;;;5.53;2.83;;;;;;;13.68;34.41;96428.09;5083268;28;20039;-76
2021/04/26 07:00:52;;;;;;;4.53;2.80;;;;;;;13.69;34.26;96429.66;5087444;28;20037;-76
2021/04/26 07:03:18;;;;;;;2.60;2.40;;;;;;;13.74;34.08;96433.19;5087848;28;20033;-76
2021/04/26 07:05:44;;;;;;;2.72;2.40;;;;;;;13.80;34.01;96428.81;5085307;28;20058;-76
2021/04/26 07:08:10;;;;;;;8.88;3.42;;;;;;;13.80;33.77;96432.25;5083844;28;20040;-77
2021/04/26 07:10:37;;;;;;;2.72;2.53;;;;;;;13.90;33.85;96429.00;5079222;28;20062;-76
2021/04/26 07:13:03;;;;;;;2.70;2.50;;;;;;;14.02;33.64;96429.69;5089236;28;20037;-76
2021/04/26 07:15:29;;;;;;;4.03;3.05;;;;;;;14.10;33.49;96420.59;5084700;28;20055;-76
2021/04/26 07:17:56;;;;;;;3.65;2.67;;;;;;;14.24;33.36;96428.16;5082414;28;20384;-76
2021/04/26 07:20:22;;;;;;;3.60;2.55;;;;;;;14.56;33.17;96421.28;5080130;28;20385;-76
2021/04/26 07:22:48;;;;;;;4.40;2.80;;;;;;;14.71;32.88;96418.03;5087129;28;20044;-76
2021/04/26 07:25:15;;;;;;;3.53;2.65;;;;;;;14.88;32.77;96422.47;5066828;28;20032;-76
2021/04/26 07:27:41;;;;;;;4.30;2.80;;;;;;;15.08;32.40;96409.50;5088787;28;20036;-76
2021/04/26 07:30:09;;;;;;;3.67;2.42;;;;;;;15.09;32.22;96416.38;5079372;28;20036;-76
2021/04/26 07:32:35;;;;;;;2.78;2.40;;;;;;;15.23;31.94;96416.81;5082122;28;20373;-76
2021/04/26 07:35:03;;;;;;;2.47;2.25;;;;;;;15.33;31.59;96424.84;5091399;28;20498;-77
2021/04/26 07:37:29;;;;;;;2.42;2.17;;;;;;;15.39;31.42;96418.56;5081874;28;20039;-76
2021/04/26 07:39:56;;;;;;;2.50;2.30;;;;;;;15.35;31.09;96419.28;5080827;28;20032;-76
2021/04/26 07:42:22;;;;;;;2.75;2.40;;;;;;;15.26;30.84;96416.28;5081219;28;20040;-76
2021/04/26 07:44:48;;;;;;;2.63;2.33;;;;;;;15.18;30.67;96420.19;5088199;28;20040;-76
2021/04/26 07:47:14;;;;;;;3.50;2.70;;;;;;;15.13;30.66;96421.97;5084983;28;20031;-76
2021/04/26 07:49:41;;;;;;;3.78;2.40;;;;;;;15.00;30.62;96410.72;5083290;28;20381;-76
2021/04/26 07:52:07;;;;;;;5.15;2.90;;;;;;;14.95;30.34;96408.03;5084902;28;20040;-76
2021/04/26 07:54:33;;;;;;;2.67;2.47;;;;;;;14.59;30.28;96412.88;5085447;28;20032;-76
2021/04/26 07:56:59;;;;;;;3.90;2.47;;;;;;;14.47;30.50;96408.69;5070488;28;20036;-76
2021/04/26 07:59:26;;;;;;;2.67;2.30;;;;;;;14.55;30.60;96401.22;5081300;28;20039;-76
2021/04/26 08:02:12;;;;;;;2.72;2.53;;;;;;;15.06;30.63;96406.31;5041817;28;20048;-76
2021/04/26 08:04:58;;;;;;;3.53;2.40;;;;;;;15.49;30.24;96396.69;5035029;28;20045;-76
2021/04/26 08:07:45;;;;;;;2.78;2.58;;;;;;;15.45;29.75;96395.59;4998554;28;20049;-76
2021/04/26 08:10:31;;;;;;;2.63;2.42;;;;;;;15.17;29.74;96397.44;5047721;28;20047;-76
2021/04/26 08:13:18;;;;;;;2.35;2.15;;;;;;;14.69;29.92;96393.72;5038731;28;20040;-76
2021/04/26 08:16:05;;;;;;;4.43;2.92;;;;;;;14.64;30.06;96398.94;5035904;28;20048;-76
2021/04/26 08:18:52;;;;;;;4.20;2.78;;;;;;;14.89;30.33;96400.28;5026522;28;20053;-76
2021/04/26 08:21:39;;;;;;;3.13;2.40;;;;;;;15.21;30.04;96395.13;5023476;28;20490;-77
2021/04/26 08:24:27;;;;;;;2.55;2.35;;;;;;;15.39;29.92;96386.84;5020813;28;20038;-76
2021/04/26 08:27:14;;;;;;;2.60;2.40;;;;;;;15.32;29.53;96388.88;5007180;28;20045;-76
2021/04/26 08:30:00;;;;;;;2.83;2.40;;;;;;;15.44;29.51;96380.81;4995644;28;20049;-76
2021/04/26 08:32:47;;;;;;;3.05;2.47;;;;;;;15.65;29.46;96376.50;4991556;28;20048;-76
2021/04/26 08:35:33;;;;;;;4.68;2.20;;;;;;;15.69;29.25;96379.44;5018222;28;20045;-76
2021/04/26 08:38:20;;;;;;;2.40;2.20;;;;;;;15.67;29.17;96377.06;5006275;28;20056;-76
2021/04/26 08:41:13;;;;;;;3.38;2.10;;;;;;;15.70;29.01;96373.09;5020604;28;20112;-76
2021/04/26 08:43:59;;;;;;;4.65;2.30;;;;;;;15.97;29.10;96365.94;5022498;28;20048;-77
2021/04/26 08:46:46;;;;;;;4.32;2.60;;;;;;;15.97;28.84;96362.50;4982692;28;20045;-76
2021/04/26 08:49:33;;;;;;;3.08;2.40;;;;;;;15.88;28.80;96366.69;4997830;28;20153;-76
2021/04/26 08:52:19;;;;;;;4.25;2.53;;;;;;;16.19;28.80;96360.53;5025803;28;20049;-76
2021/04/26 08:55:07;;;;;;;3.00;2.30;;;;;;;16.23;28.73;96356.31;5026506;28;20044;-76
2021/04/26 08:57:54;;;;;;;3.75;2.38;;;;;;;16.47;28.73;96360.41;4993364;28;20481;-76
2021/04/26 09:00:40;;;;;;;2.63;2.38;;;;;;;16.58;28.46;96357.53;5021490;28;20048;-76
2021/04/26 09:03:38;;;;;;;2.55;2.08;;;;;;;16.43;28.69;96366.22;5034283;28;20048;-75
2021/04/26 09:06:11;;;;;;;4.90;2.45;;;;;;;16.54;28.83;96374.22;5041813;28;20048;-75
2021/04/26 09:08:38;;;;;;;2.17;1.98;;;;;;;16.64;28.41;96367.09;5038634;28;20076;-75
2021/04/26 09:11:07;;;;;;;2.92;2.63;;;;;;;16.51;28.29;96362.28;5039459;28;20045;-76
2021/04/26 09:13:36;;;;;;;4.60;2.38;;;;;;;16.30;28.35;96361.38;5038380;28;20122;-76
2021/04/26 09:16:20;;;;;;;4.43;2.50;;;;;;;16.15;28.61;96359.44;5046073;28;20401;-76
2021/04/26 09:19:16;;;;;;;2.28;2.08;;;;;;;16.22;28.69;96367.16;5060466;28;20385;-75
2021/04/26 09:21:46;;;;;;;3.63;2.40;;;;;;;16.37;28.71;96369.88;5062123;28;20473;-76
2021/04/26 09:24:17;;;;;;;3.78;2.60;;;;;;;16.16;28.37;96368.19;5082904;28;20047;-75
2021/04/26 09:26:49;;;;;;;3.30;2.50;;;;;;;15.77;27.95;96363.13;5084684;28;20048;-76
2021/04/26 09:29:21;;;;;;;4.93;2.40;;;;;;;15.61;29.08;96368.28;5077406;28;20041;-76
2021/04/26 09:32:14;;;;;;;2.40;2.17;;;;;;;15.76;28.04;96366.84;5084409;28;20032;-75
2021/04/26 09:34:53;;;;;;;2.25;2.05;;;;;;;15.72;27.76;96371.81;5082538;28;20044;-75
2021/04/26 09:37:24;;;;;;;3.97;2.55;;;;;;;15.93;28.62;96361.41;5080942;28;20024;-75
2021/04/26 09:39:59;;;;;;;3.72;2.88;;;;;;;15.91;28.13;96351.06;5079198;28;20041;-75
2021/04/26 09:42:40;;;;;;;4.47;2.30;;;;;;;15.89;28.35;96342.59;5080449;28;20032;-75
2021/04/26 09:45:26;;;;;;;2.65;2.22;;;;;;;15.95;28.35;96348.72;5085502;28;20036;-75
2021/04/26 09:48:32;;;;;;;2.67;2.38;;;;;;;15.72;27.92;96360.47;5086535;28;20039;-76
2021/04/26 09:51:20;;;;;;;4.13;2.20;;;;;;;15.79;27.59;96351.28;4981244;28;20066;-76
2021/04/26 09:53:55;;;;;;;2.88;2.13;;;;;;;15.79;28.04;96343.34;4977809;28;20034;-77
2021/04/26 09:56:26;;;;;;;2.10;2.00;;;;;;;15.76;27.99;96362.34;5044984;28;20048;-77
2021/04/26 09:59:02;;;;;;;2.55;2.15;;;;;;;15.47;27.58;96358.38;5064062;28;20036;-77
2021/04/26 10:01:29;;;;;;;2.97;2.13;;;;;;;15.26;28.35;96355.53;5083279;28;20028;-76
2021/04/26 10:03:56;;;;;;;3.45;2.50;;;;;;;15.66;28.54;96358.78;5087237;28;20040;-76
2021/04/26 10:06:24;;;;;;;2.13;1.92;;;;;;;16.11;28.26;96360.22;5085466;28;20039;-77
2021/04/26 10:08:52;;;;;;;2.35;2.15;;;;;;;16.42;27.82;96359.34;5087190;28;20481;-76
2021/04/26 10:11:20;;;;;;;2.28;1.80;;;;;;;16.58;27.51;96359.41;5090512;28;20036;-75
2021/04/26 10:13:48;;;;;;;1.70;1.60;;;;;;;16.43;26.90;96368.06;5083010;28;20040;-75
2021/04/26 10:16:24;;;;;;;1.75;1.60;;;;;;;16.42;24.44;96353.22;5084112;28;20036;-75
2021/04/26 10:18:58;;;;;;;3.13;2.50;;;;;;;16.22;24.67;96356.56;5084139;28;20051;-75
2021/04/26 10:21:24;;;;;;;3.05;1.83;;;;;;;16.37;26.42;96354.00;5090417;28;20075;-75
2021/04/26 10:23:52;;;;;;;4.85;2.30;;;;;;;16.52;26.16;96357.78;5084103;28;20036;-76
2021/04/26 10:26:42;;;;;;;2.55;2.30;;;;;;;16.64;24.33;96337.97;5082583;28;20036;-76
2021/04/26 10:29:12;;;;;;;2.25;1.70;;;;;;;16.72;25.70;96331.41;5086295;28;20053;-76
2021/04/26 10:31:56;;;;;;;4.00;2.22;;;;;;;17.02;24.96;96319.31;5087468;28;20032;-76
2021/04/26 10:34:23;;;;;;;;;;;;;;;17.21;25.11;96338.19;5090870;28;20043;-76
2021/04/26 10:36:53;;;;;;;2.10;1.98;;;;;;;17.22;25.16;96332.63;5086723;28;19919;-76
2021/04/26 10:39:25;;;;;;;2.30;2.10;;;;;;;17.03;24.84;96324.38;5087499;28;20051;-76
2021/04/26 10:41:53;;;;;;;2.42;2.20;;;;;;;16.97;25.01;96330.72;5086266;28;20043;-76
2021/04/26 10:44:41;;;;;;;5.30;2.20;;;;;;;16.89;24.83;96306.59;5082159;28;20036;-75
2021/04/26 10:47:21;;;;;;;3.20;1.83;;;;;;;17.03;28.88;96321.72;5081544;28;20465;-76
2021/04/26 10:49:50;;;;;;;2.10;1.73;;;;;;;17.66;26.33;96318.06;5085405;28;20036;-76
2021/04/26 10:52:29;;;;;;;2.20;2.00;;;;;;;17.97;23.27;96304.78;5082995;28;20048;-77
2021/04/26 10:54:59;;;;;;;3.33;2.47;;;;;;;17.58;23.50;96311.44;5085626;28;20392;-78
2021/04/26 10:57:44;;;;;;;2.92;2.28;;;;;;;17.10;24.65;96323.31;5083550;28;20044;-77
2021/04/26 11:00:23;;;;;;;4.30;2.33;;;;;;;16.91;24.92;96320.38;5080590;28;20039;-76
2021/04/26 11:02:57;;;;;;;3.13;2.40;;;;;;;17.02;24.70;96301.56;5084045;28;20032;-76
2021/04/26 11:05:35;;;;;;;3.00;2.30;;;;;;;16.91;25.23;96283.28;5085122;28;20032;-77
2021/04/26 11:08:47;;;;;;;3.97;2.10;;;;;;;17.24;25.86;96285.44;5087973;28;20041;-76
2021/04/26 11:13:57;;;;;;;4.82;2.20;;;;;;;17.73;22.95;96276.16;5088944;28;20044;-76
2021/04/26 11:16:32;;;;;;;2.00;1.77;;;;;;;17.96;23.68;96276.69;5091024;28;20039;-77
2021/04/26 11:18:59;;;;;;;2.53;2.33;;;;;;;18.08;23.94;96271.06;5082883;28;20052;-76
2021/04/26 11:21:43;;;;;;;2.45;2.08;;;;;;;18.14;23.77;96267.31;5081619;28;20052;-76
2021/04/26 11:24:31;;;;;;;2.83;2.45;;;;;;;17.94;23.18;96263.66;5086349;28;20035;-76
2021/04/26 11:27:10;;;;;;;2.53;1.90;;;;;;;17.81;23.01;96257.03;5083756;28;20044;-76
2021/04/26 11:29:45;;;;;;;2.50;2.10;;;;;;;18.04;22.37;96254.91;5088652;28;20044;-76
2021/04/26 11:32:15;;;;;;;2.35;2.00;;;;;;;17.64;22.94;96251.25;5070081;28;20042;-78
2021/04/26 11:34:47;;;;;;;3.55;1.92;;;;;;;16.99;21.85;96256.28;5077833;28;20039;-78
2021/04/26 11:37:23;;;;;;;3.08;2.15;;;;;;;16.89;22.77;96240.38;5066041;28;20392;-77
2021/04/26 11:39:53;;;;;;;3.28;2.40;;;;;;;16.94;23.27;96238.50;5089702;28;20028;-77
2021/04/26 11:42:38;;;;;;;4.57;2.22;;;;;;;17.12;23.62;96236.41;5084013;28;20043;-79
2021/04/26 11:45:09;;;;;;;2.13;1.92;;;;;;;17.51;23.99;96234.00;5086195;28;20131;-77
2021/04/26 11:47:38;;;;;;;2.17;1.92;;;;;;;17.89;23.70;96218.59;5080559;28;20040;-77
2021/04/26 11:50:08;;;;;;;2.05;1.83;;;;;;;18.17;23.22;96197.78;5078199;28;20048;-76
2021/04/26 11:52:36;;;;;;;2.00;1.80;;;;;;;18.33;23.40;96212.59;5090697;28;20032;-76
2021/04/26 11:55:03;;;;;;;3.38;2.08;;;;;;;18.57;23.21;96218.03;5087106;28;20055;-75
2021/04/26 11:57:41;;;;;;;4.65;2.65;;;;;;;18.65;23.17;96209.50;5081566;28;20035;-76
2021/04/26 12:00:19;;;;;;;5.57;2.50;;;;;;;18.40;22.84;96212.28;5082205;28;20035;-76
2021/04/26 12:02:49;;;;;;;3.83;2.67;;;;;;;18.33;23.20;96196.66;5084818;28;20387;-76